Kensington, Canada
Current Conditions -  °F | °C
As of 1:00 AM on Monday 20 Oct 2014 (Local Time) from CYYG Reporting Station
Overcast Overcast  
Wind Chill: 39°   Ceiling: 1800
Heat Index: 45°   Visibility: 15mi
Dew Point: 43°   Wind: 10mph
Humidity: 93%   Direction: 350°N
Pressure: 29.55"   Gusts: NA
Location:  46.43°N, 63.65°W
Report Text: CYYG 200400Z 35009KT 15SM OVC018 07/06 A2955 RMK SC8 SLP006
Loading
Personal Weather Stations






























Interactive Weather Map
Tropical Storm Tracking
New forecast layout! Learn more

10-Day Weather Forecast

Advertisements
Track Severe Weather on mobile